sensor_id;sensor_type;location;lat;lon;timestamp;P1;durP1;ratioP1;P2;durP2;ratioP2
691;SDS011;328;50.086;8.576;2022-09-14T00:00:53;16.53;;;13.10;;
691;SDS011;328;50.086;8.576;2022-09-14T00:03:41;16.33;;;12.80;;
691;SDS011;328;50.086;8.576;2022-09-14T00:06:09;13.67;;;12.17;;
691;SDS011;328;50.086;8.576;2022-09-14T00:08:40;15.53;;;13.80;;
691;SDS011;328;50.086;8.576;2022-09-14T00:11:08;16.40;;;13.63;;
691;SDS011;328;50.086;8.576;2022-09-14T00:13:37;16.23;;;13.90;;
691;SDS011;328;50.086;8.576;2022-09-14T00:16:06;15.63;;;13.67;;
691;SDS011;328;50.086;8.576;2022-09-14T00:18:35;17.33;;;13.90;;
691;SDS011;328;50.086;8.576;2022-09-14T00:21:04;14.80;;;12.40;;
691;SDS011;328;50.086;8.576;2022-09-14T00:23:33;14.27;;;12.77;;
691;SDS011;328;50.086;8.576;2022-09-14T00:26:03;13.50;;;11.27;;
691;SDS011;328;50.086;8.576;2022-09-14T00:28:35;13.83;;;12.33;;
691;SDS011;328;50.086;8.576;2022-09-14T00:31:04;12.30;;;10.63;;
691;SDS011;328;50.086;8.576;2022-09-14T00:33:32;16.37;;;13.67;;
691;SDS011;328;50.086;8.576;2022-09-14T00:36:04;15.90;;;12.80;;
691;SDS011;328;50.086;8.576;2022-09-14T00:38:32;15.50;;;13.80;;
691;SDS011;328;50.086;8.576;2022-09-14T00:41:00;16.90;;;13.30;;
691;SDS011;328;50.086;8.576;2022-09-14T00:43:30;18.40;;;14.17;;
691;SDS011;328;50.086;8.576;2022-09-14T00:45:58;16.77;;;13.43;;
691;SDS011;328;50.086;8.576;2022-09-14T00:48:26;14.97;;;13.47;;
691;SDS011;328;50.086;8.576;2022-09-14T00:50:55;14.33;;;12.83;;
691;SDS011;328;50.086;8.576;2022-09-14T00:53:23;13.10;;;11.73;;
691;SDS011;328;50.086;8.576;2022-09-14T00:55:51;14.03;;;12.13;;
691;SDS011;328;50.086;8.576;2022-09-14T00:58:21;12.87;;;11.60;;
691;SDS011;328;50.086;8.576;2022-09-14T01:00:48;17.47;;;12.43;;
691;SDS011;328;50.086;8.576;2022-09-14T01:03:15;14.80;;;12.40;;
691;SDS011;328;50.086;8.576;2022-09-14T01:05:46;18.60;;;14.13;;
691;SDS011;328;50.086;8.576;2022-09-14T01:08:32;18.57;;;13.60;;
691;SDS011;328;50.086;8.576;2022-09-14T01:11:10;15.23;;;12.73;;
691;SDS011;328;50.086;8.576;2022-09-14T01:13:54;14.60;;;11.63;;
691;SDS011;328;50.086;8.576;2022-09-14T01:16:24;20.27;;;14.10;;
691;SDS011;328;50.086;8.576;2022-09-14T01:18:57;12.77;;;10.93;;
691;SDS011;328;50.086;8.576;2022-09-14T01:21:27;16.00;;;12.10;;
691;SDS011;328;50.086;8.576;2022-09-14T01:23:58;16.53;;;11.90;;
691;SDS011;328;50.086;8.576;2022-09-14T01:26:37;13.77;;;11.50;;
691;SDS011;328;50.086;8.576;2022-09-14T01:29:12;13.83;;;11.37;;
691;SDS011;328;50.086;8.576;2022-09-14T01:31:43;14.47;;;12.87;;
691;SDS011;328;50.086;8.576;2022-09-14T01:34:15;13.80;;;11.93;;
691;SDS011;328;50.086;8.576;2022-09-14T01:36:49;12.83;;;10.70;;
691;SDS011;328;50.086;8.576;2022-09-14T01:39:21;12.60;;;11.30;;
691;SDS011;328;50.086;8.576;2022-09-14T01:41:48;12.23;;;10.57;;
691;SDS011;328;50.086;8.576;2022-09-14T01:44:19;11.93;;;10.73;;
691;SDS011;328;50.086;8.576;2022-09-14T01:46:50;11.20;;;10.00;;
691;SDS011;328;50.086;8.576;2022-09-14T01:49:22;13.70;;;9.97;;
691;SDS011;328;50.086;8.576;2022-09-14T01:51:52;11.70;;;9.80;;
691;SDS011;328;50.086;8.576;2022-09-14T01:54:24;11.57;;;9.90;;
691;SDS011;328;50.086;8.576;2022-09-14T01:56:55;10.37;;;9.27;;
691;SDS011;328;50.086;8.576;2022-09-14T01:59:26;14.03;;;9.97;;
691;SDS011;328;50.086;8.576;2022-09-14T02:01:59;11.13;;;9.30;;
691;SDS011;328;50.086;8.576;2022-09-14T02:04:33;10.93;;;9.53;;
691;SDS011;328;50.086;8.576;2022-09-14T02:07:04;12.50;;;10.20;;
691;SDS011;328;50.086;8.576;2022-09-14T02:09:31;13.03;;;11.10;;
691;SDS011;328;50.086;8.576;2022-09-14T02:11:59;13.50;;;11.50;;
691;SDS011;328;50.086;8.576;2022-09-14T02:14:28;16.83;;;12.80;;
691;SDS011;328;50.086;8.576;2022-09-14T02:16:56;16.00;;;13.23;;
691;SDS011;328;50.086;8.576;2022-09-14T02:19:24;18.90;;;14.03;;
691;SDS011;328;50.086;8.576;2022-09-14T02:21:52;18.27;;;14.53;;
691;SDS011;328;50.086;8.576;2022-09-14T02:24:20;18.67;;;14.70;;
691;SDS011;328;50.086;8.576;2022-09-14T02:26:47;20.40;;;15.63;;
691;SDS011;328;50.086;8.576;2022-09-14T02:29:17;22.50;;;17.77;;
691;SDS011;328;50.086;8.576;2022-09-14T02:31:52;22.10;;;17.33;;
691;SDS011;328;50.086;8.576;2022-09-14T02:34:31;19.67;;;14.47;;
691;SDS011;328;50.086;8.576;2022-09-14T02:37:02;15.57;;;13.87;;
691;SDS011;328;50.086;8.576;2022-09-14T02:39:36;17.70;;;15.10;;
691;SDS011;328;50.086;8.576;2022-09-14T02:42:13;20.20;;;15.27;;
691;SDS011;328;50.086;8.576;2022-09-14T02:44:45;21.03;;;15.20;;
691;SDS011;328;50.086;8.576;2022-09-14T02:47:21;23.13;;;16.80;;
691;SDS011;328;50.086;8.576;2022-09-14T02:49:54;20.63;;;15.23;;
691;SDS011;328;50.086;8.576;2022-09-14T02:52:26;16.80;;;14.50;;
691;SDS011;328;50.086;8.576;2022-09-14T02:54:58;17.27;;;14.60;;
691;SDS011;328;50.086;8.576;2022-09-14T02:57:29;17.70;;;14.90;;
691;SDS011;328;50.086;8.576;2022-09-14T02:59:57;19.73;;;16.13;;
691;SDS011;328;50.086;8.576;2022-09-14T03:02:25;20.57;;;16.67;;
691;SDS011;328;50.086;8.576;2022-09-14T03:04:53;19.30;;;17.10;;
691;SDS011;328;50.086;8.576;2022-09-14T03:07:21;18.57;;;15.70;;
691;SDS011;328;50.086;8.576;2022-09-14T03:09:49;22.83;;;15.23;;
691;SDS011;328;50.086;8.576;2022-09-14T03:12:16;17.43;;;15.20;;
691;SDS011;328;50.086;8.576;2022-09-14T03:14:44;19.40;;;15.30;;
691;SDS011;328;50.086;8.576;2022-09-14T03:17:11;22.13;;;15.80;;
691;SDS011;328;50.086;8.576;2022-09-14T03:19:40;16.70;;;13.60;;
691;SDS011;328;50.086;8.576;2022-09-14T03:22:07;16.97;;;14.47;;
691;SDS011;328;50.086;8.576;2022-09-14T03:24:35;18.60;;;14.70;;
691;SDS011;328;50.086;8.576;2022-09-14T03:27:02;20.10;;;15.07;;
691;SDS011;328;50.086;8.576;2022-09-14T03:29:30;20.53;;;14.23;;
691;SDS011;328;50.086;8.576;2022-09-14T03:31:57;18.20;;;13.40;;
691;SDS011;328;50.086;8.576;2022-09-14T03:34:25;21.33;;;14.40;;
691;SDS011;328;50.086;8.576;2022-09-14T03:36:54;17.70;;;12.50;;
691;SDS011;328;50.086;8.576;2022-09-14T03:39:21;16.83;;;13.60;;
691;SDS011;328;50.086;8.576;2022-09-14T03:41:49;19.03;;;14.57;;
691;SDS011;328;50.086;8.576;2022-09-14T03:44:16;16.73;;;13.50;;
691;SDS011;328;50.086;8.576;2022-09-14T03:46:44;17.63;;;13.60;;
691;SDS011;328;50.086;8.576;2022-09-14T03:49:11;17.13;;;13.67;;
691;SDS011;328;50.086;8.576;2022-09-14T03:51:39;21.80;;;14.13;;
691;SDS011;328;50.086;8.576;2022-09-14T03:54:08;20.67;;;14.30;;
691;SDS011;328;50.086;8.576;2022-09-14T03:56:35;17.83;;;13.03;;
691;SDS011;328;50.086;8.576;2022-09-14T03:59:03;20.30;;;15.40;;
691;SDS011;328;50.086;8.576;2022-09-14T04:01:31;16.27;;;14.53;;
691;SDS011;328;50.086;8.576;2022-09-14T04:03:58;16.97;;;15.10;;
691;SDS011;328;50.086;8.576;2022-09-14T04:06:26;18.47;;;15.40;;
691;SDS011;328;50.086;8.576;2022-09-14T04:08:53;15.90;;;13.00;;
691;SDS011;328;50.086;8.576;2022-09-14T04:11:23;21.87;;;15.60;;
691;SDS011;328;50.086;8.576;2022-09-14T04:13:51;19.43;;;16.00;;
691;SDS011;328;50.086;8.576;2022-09-14T04:16:19;15.43;;;13.63;;
691;SDS011;328;50.086;8.576;2022-09-14T04:18:47;17.03;;;14.20;;
691;SDS011;328;50.086;8.576;2022-09-14T04:21:16;17.40;;;13.60;;
691;SDS011;328;50.086;8.576;2022-09-14T04:23:45;18.90;;;14.70;;
691;SDS011;328;50.086;8.576;2022-09-14T04:26:34;21.30;;;15.37;;
691;SDS011;328;50.086;8.576;2022-09-14T04:29:01;16.93;;;13.40;;
691;SDS011;328;50.086;8.576;2022-09-14T04:31:29;19.33;;;14.80;;
691;SDS011;328;50.086;8.576;2022-09-14T04:33:57;17.00;;;14.00;;
691;SDS011;328;50.086;8.576;2022-09-14T04:36:25;19.43;;;14.23;;
691;SDS011;328;50.086;8.576;2022-09-14T04:38:56;16.17;;;13.13;;
691;SDS011;328;50.086;8.576;2022-09-14T04:41:25;14.50;;;11.80;;
691;SDS011;328;50.086;8.576;2022-09-14T04:43:55;15.40;;;12.33;;
691;SDS011;328;50.086;8.576;2022-09-14T04:46:24;11.07;;;8.50;;
691;SDS011;328;50.086;8.576;2022-09-14T04:48:53;10.23;;;8.57;;
691;SDS011;328;50.086;8.576;2022-09-14T04:51:22;8.80;;;7.50;;
691;SDS011;328;50.086;8.576;2022-09-14T04:53:51;9.70;;;7.93;;
691;SDS011;328;50.086;8.576;2022-09-14T04:56:20;10.10;;;7.83;;
691;SDS011;328;50.086;8.576;2022-09-14T04:58:49;8.90;;;7.17;;
691;SDS011;328;50.086;8.576;2022-09-14T05:01:20;7.13;;;6.40;;
691;SDS011;328;50.086;8.576;2022-09-14T05:03:49;7.37;;;6.67;;
691;SDS011;328;50.086;8.576;2022-09-14T05:06:18;10.57;;;7.90;;
691;SDS011;328;50.086;8.576;2022-09-14T05:08:47;8.80;;;7.43;;
691;SDS011;328;50.086;8.576;2022-09-14T05:11:15;7.30;;;6.60;;
691;SDS011;328;50.086;8.576;2022-09-14T05:13:44;8.17;;;6.77;;
691;SDS011;328;50.086;8.576;2022-09-14T05:16:15;8.00;;;6.77;;
691;SDS011;328;50.086;8.576;2022-09-14T05:18:45;9.67;;;6.67;;
691;SDS011;328;50.086;8.576;2022-09-14T05:21:14;9.13;;;7.87;;
691;SDS011;328;50.086;8.576;2022-09-14T05:23:43;9.53;;;7.80;;
691;SDS011;328;50.086;8.576;2022-09-14T05:26:10;7.80;;;6.67;;
691;SDS011;328;50.086;8.576;2022-09-14T05:28:38;7.47;;;6.70;;
691;SDS011;328;50.086;8.576;2022-09-14T05:31:07;10.40;;;7.50;;
691;SDS011;328;50.086;8.576;2022-09-14T05:33:36;8.47;;;6.47;;
691;SDS011;328;50.086;8.576;2022-09-14T05:36:06;7.63;;;6.87;;
691;SDS011;328;50.086;8.576;2022-09-14T05:38:35;7.67;;;6.90;;
691;SDS011;328;50.086;8.576;2022-09-14T05:41:04;9.17;;;7.30;;
691;SDS011;328;50.086;8.576;2022-09-14T05:43:33;9.43;;;7.30;;
691;SDS011;328;50.086;8.576;2022-09-14T05:46:01;9.33;;;5.73;;
691;SDS011;328;50.086;8.576;2022-09-14T05:48:29;10.20;;;7.50;;
691;SDS011;328;50.086;8.576;2022-09-14T05:50:57;9.70;;;7.80;;
691;SDS011;328;50.086;8.576;2022-09-14T05:53:27;8.47;;;7.67;;
691;SDS011;328;50.086;8.576;2022-09-14T05:55:58;7.43;;;6.73;;
691;SDS011;328;50.086;8.576;2022-09-14T05:58:25;9.07;;;7.47;;
691;SDS011;328;50.086;8.576;2022-09-14T06:00:53;7.67;;;6.87;;
691;SDS011;328;50.086;8.576;2022-09-14T06:03:21;9.60;;;7.30;;
691;SDS011;328;50.086;8.576;2022-09-14T06:05:48;13.20;;;6.43;;
691;SDS011;328;50.086;8.576;2022-09-14T06:08:16;8.10;;;7.30;;
691;SDS011;328;50.086;8.576;2022-09-14T06:10:44;7.40;;;6.70;;
691;SDS011;328;50.086;8.576;2022-09-14T06:13:12;7.20;;;6.40;;
691;SDS011;328;50.086;8.576;2022-09-14T06:15:39;7.40;;;6.50;;
691;SDS011;328;50.086;8.576;2022-09-14T06:18:07;9.60;;;6.90;;
691;SDS011;328;50.086;8.576;2022-09-14T06:20:34;7.67;;;5.57;;
691;SDS011;328;50.086;8.576;2022-09-14T06:23:02;8.33;;;6.53;;
691;SDS011;328;50.086;8.576;2022-09-14T06:25:29;7.40;;;6.70;;
691;SDS011;328;50.086;8.576;2022-09-14T06:27:58;7.47;;;6.47;;
691;SDS011;328;50.086;8.576;2022-09-14T06:30:25;6.60;;;5.90;;
691;SDS011;328;50.086;8.576;2022-09-14T06:32:53;6.60;;;5.83;;
691;SDS011;328;50.086;8.576;2022-09-14T06:35:20;6.80;;;5.73;;
691;SDS011;328;50.086;8.576;2022-09-14T06:37:48;8.67;;;6.23;;
691;SDS011;328;50.086;8.576;2022-09-14T06:40:15;6.23;;;5.60;;
691;SDS011;328;50.086;8.576;2022-09-14T06:42:43;7.80;;;5.63;;
691;SDS011;328;50.086;8.576;2022-09-14T06:45:12;5.87;;;5.27;;
691;SDS011;328;50.086;8.576;2022-09-14T06:47:39;5.63;;;4.80;;
691;SDS011;328;50.086;8.576;2022-09-14T06:50:07;7.17;;;5.53;;
691;SDS011;328;50.086;8.576;2022-09-14T06:52:35;6.23;;;5.20;;
691;SDS011;328;50.086;8.576;2022-09-14T06:55:03;7.60;;;4.57;;
691;SDS011;328;50.086;8.576;2022-09-14T06:57:31;6.87;;;5.10;;
691;SDS011;328;50.086;8.576;2022-09-14T06:59:58;6.90;;;5.47;;
691;SDS011;328;50.086;8.576;2022-09-14T07:02:27;7.50;;;5.90;;
691;SDS011;328;50.086;8.576;2022-09-14T07:04:54;7.03;;;6.10;;
691;SDS011;328;50.086;8.576;2022-09-14T07:07:22;10.23;;;6.20;;
691;SDS011;328;50.086;8.576;2022-09-14T07:09:50;6.80;;;5.67;;
691;SDS011;328;50.086;8.576;2022-09-14T07:12:17;7.37;;;6.57;;
691;SDS011;328;50.086;8.576;2022-09-14T07:14:45;7.20;;;6.50;;
691;SDS011;328;50.086;8.576;2022-09-14T07:17:12;6.50;;;5.50;;
691;SDS011;328;50.086;8.576;2022-09-14T07:19:43;6.10;;;5.50;;
691;SDS011;328;50.086;8.576;2022-09-14T07:22:11;6.37;;;5.57;;
691;SDS011;328;50.086;8.576;2022-09-14T07:24:39;9.00;;;6.00;;
691;SDS011;328;50.086;8.576;2022-09-14T07:27:07;7.73;;;5.93;;
691;SDS011;328;50.086;8.576;2022-09-14T07:29:35;6.40;;;5.70;;
691;SDS011;328;50.086;8.576;2022-09-14T07:32:02;6.00;;;5.40;;
691;SDS011;328;50.086;8.576;2022-09-14T07:34:30;9.73;;;5.67;;
691;SDS011;328;50.086;8.576;2022-09-14T07:37:03;7.40;;;5.30;;
691;SDS011;328;50.086;8.576;2022-09-14T07:39:30;4.97;;;4.47;;
691;SDS011;328;50.086;8.576;2022-09-14T07:42:11;6.40;;;4.80;;
691;SDS011;328;50.086;8.576;2022-09-14T07:44:45;7.00;;;5.13;;
691;SDS011;328;50.086;8.576;2022-09-14T07:47:15;5.93;;;4.97;;
691;SDS011;328;50.086;8.576;2022-09-14T07:49:50;6.60;;;4.90;;
691;SDS011;328;50.086;8.576;2022-09-14T07:52:20;9.47;;;5.23;;
691;SDS011;328;50.086;8.576;2022-09-14T07:54:51;5.73;;;5.20;;
691;SDS011;328;50.086;8.576;2022-09-14T07:57:20;5.73;;;5.23;;
691;SDS011;328;50.086;8.576;2022-09-14T08:00:08;4.33;;;3.90;;
691;SDS011;328;50.086;8.576;2022-09-14T08:02:36;6.43;;;4.27;;
691;SDS011;328;50.086;8.576;2022-09-14T08:05:04;5.27;;;4.77;;
691;SDS011;328;50.086;8.576;2022-09-14T08:07:34;4.10;;;3.70;;
691;SDS011;328;50.086;8.576;2022-09-14T08:10:01;4.80;;;4.10;;
691;SDS011;328;50.086;8.576;2022-09-14T08:12:29;3.73;;;3.30;;
691;SDS011;328;50.086;8.576;2022-09-14T08:14:56;5.67;;;4.33;;
691;SDS011;328;50.086;8.576;2022-09-14T08:17:24;7.33;;;3.97;;
691;SDS011;328;50.086;8.576;2022-09-14T08:19:51;4.10;;;3.47;;
691;SDS011;328;50.086;8.576;2022-09-14T08:22:20;5.43;;;4.10;;
691;SDS011;328;50.086;8.576;2022-09-14T08:24:49;4.20;;;3.80;;
691;SDS011;328;50.086;8.576;2022-09-14T08:27:17;4.60;;;3.87;;
691;SDS011;328;50.086;8.576;2022-09-14T08:29:44;6.73;;;4.60;;
691;SDS011;328;50.086;8.576;2022-09-14T08:32:11;7.50;;;4.10;;
691;SDS011;328;50.086;8.576;2022-09-14T08:34:39;4.00;;;3.47;;
691;SDS011;328;50.086;8.576;2022-09-14T08:37:07;4.23;;;3.37;;
691;SDS011;328;50.086;8.576;2022-09-14T08:39:35;4.27;;;3.33;;
691;SDS011;328;50.086;8.576;2022-09-14T08:42:04;4.50;;;4.03;;
691;SDS011;328;50.086;8.576;2022-09-14T08:44:39;4.43;;;3.17;;
691;SDS011;328;50.086;8.576;2022-09-14T08:47:09;5.80;;;3.70;;
691;SDS011;328;50.086;8.576;2022-09-14T08:49:41;3.57;;;3.20;;
691;SDS011;328;50.086;8.576;2022-09-14T08:52:12;4.67;;;3.30;;
691;SDS011;328;50.086;8.576;2022-09-14T08:54:48;4.63;;;4.10;;
691;SDS011;328;50.086;8.576;2022-09-14T08:57:21;4.37;;;3.97;;
691;SDS011;328;50.086;8.576;2022-09-14T08:59:56;4.47;;;3.90;;
691;SDS011;328;50.086;8.576;2022-09-14T09:02:34;4.40;;;3.97;;
691;SDS011;328;50.086;8.576;2022-09-14T09:05:17;5.00;;;4.47;;
691;SDS011;328;50.086;8.576;2022-09-14T09:07:51;5.87;;;5.17;;
691;SDS011;328;50.086;8.576;2022-09-14T09:10:22;7.40;;;4.00;;
691;SDS011;328;50.086;8.576;2022-09-14T09:12:53;3.80;;;3.50;;
691;SDS011;328;50.086;8.576;2022-09-14T09:15:22;4.97;;;4.47;;
691;SDS011;328;50.086;8.576;2022-09-14T09:17:52;4.40;;;4.00;;
691;SDS011;328;50.086;8.576;2022-09-14T09:20:23;4.97;;;4.43;;
691;SDS011;328;50.086;8.576;2022-09-14T09:22:54;5.33;;;4.13;;
691;SDS011;328;50.086;8.576;2022-09-14T09:25:28;4.73;;;3.43;;
691;SDS011;328;50.086;8.576;2022-09-14T09:28:11;4.40;;;4.00;;
691;SDS011;328;50.086;8.576;2022-09-14T09:30:39;4.50;;;4.10;;
691;SDS011;328;50.086;8.576;2022-09-14T09:33:08;5.63;;;4.00;;
691;SDS011;328;50.086;8.576;2022-09-14T09:35:38;4.03;;;3.60;;
691;SDS011;328;50.086;8.576;2022-09-14T09:38:07;5.43;;;3.47;;
691;SDS011;328;50.086;8.576;2022-09-14T09:40:40;9.00;;;4.70;;
691;SDS011;328;50.086;8.576;2022-09-14T09:43:12;5.10;;;4.50;;
691;SDS011;328;50.086;8.576;2022-09-14T09:46:00;6.30;;;4.97;;
691;SDS011;328;50.086;8.576;2022-09-14T09:48:30;5.70;;;4.27;;
691;SDS011;328;50.086;8.576;2022-09-14T09:51:04;4.77;;;4.17;;
691;SDS011;328;50.086;8.576;2022-09-14T09:53:35;4.40;;;3.97;;
691;SDS011;328;50.086;8.576;2022-09-14T09:56:07;5.00;;;4.30;;
691;SDS011;328;50.086;8.576;2022-09-14T09:58:45;5.10;;;4.47;;
691;SDS011;328;50.086;8.576;2022-09-14T10:01:17;4.60;;;4.10;;
691;SDS011;328;50.086;8.576;2022-09-14T10:03:58;4.50;;;4.10;;
691;SDS011;328;50.086;8.576;2022-09-14T10:06:40;3.73;;;3.40;;
691;SDS011;328;50.086;8.576;2022-09-14T10:09:12;5.07;;;4.67;;
691;SDS011;328;50.086;8.576;2022-09-14T10:11:41;4.80;;;4.00;;
691;SDS011;328;50.086;8.576;2022-09-14T10:14:22;4.33;;;3.70;;
691;SDS011;328;50.086;8.576;2022-09-14T10:16:50;3.00;;;2.70;;
691;SDS011;328;50.086;8.576;2022-09-14T10:19:20;4.53;;;4.10;;
691;SDS011;328;50.086;8.576;2022-09-14T10:24:55;4.33;;;3.40;;
691;SDS011;328;50.086;8.576;2022-09-14T10:27:29;4.50;;;3.00;;
691;SDS011;328;50.086;8.576;2022-09-14T10:30:05;3.93;;;3.63;;
691;SDS011;328;50.086;8.576;2022-09-14T10:32:37;3.97;;;3.40;;
691;SDS011;328;50.086;8.576;2022-09-14T10:35:10;4.47;;;3.43;;
691;SDS011;328;50.086;8.576;2022-09-14T10:37:40;4.03;;;3.47;;
691;SDS011;328;50.086;8.576;2022-09-14T10:40:17;3.47;;;3.17;;
691;SDS011;328;50.086;8.576;2022-09-14T10:42:48;5.77;;;3.27;;
691;SDS011;328;50.086;8.576;2022-09-14T10:45:26;3.63;;;3.33;;
691;SDS011;328;50.086;8.576;2022-09-14T10:48:00;4.40;;;4.00;;
691;SDS011;328;50.086;8.576;2022-09-14T10:50:35;7.37;;;4.57;;
691;SDS011;328;50.086;8.576;2022-09-14T10:53:10;4.40;;;3.90;;
691;SDS011;328;50.086;8.576;2022-09-14T10:55:47;5.63;;;4.30;;
691;SDS011;328;50.086;8.576;2022-09-14T10:58:23;5.10;;;4.60;;
691;SDS011;328;50.086;8.576;2022-09-14T11:01:05;4.33;;;3.90;;
691;SDS011;328;50.086;8.576;2022-09-14T11:03:42;4.80;;;3.57;;
691;SDS011;328;50.086;8.576;2022-09-14T11:06:22;4.27;;;3.87;;
691;SDS011;328;50.086;8.576;2022-09-14T11:08:58;4.97;;;4.47;;
691;SDS011;328;50.086;8.576;2022-09-14T11:11:32;5.50;;;5.00;;
691;SDS011;328;50.086;8.576;2022-09-14T11:14:24;6.30;;;5.70;;
691;SDS011;328;50.086;8.576;2022-09-14T11:19:49;5.23;;;4.73;;
691;SDS011;328;50.086;8.576;2022-09-14T11:22:24;6.00;;;5.27;;
691;SDS011;328;50.086;8.576;2022-09-14T11:24:57;6.70;;;5.00;;
691;SDS011;328;50.086;8.576;2022-09-14T11:27:25;5.33;;;4.40;;
691;SDS011;328;50.086;8.576;2022-09-14T11:29:56;5.70;;;5.10;;
691;SDS011;328;50.086;8.576;2022-09-14T11:32:28;4.87;;;4.47;;
691;SDS011;328;50.086;8.576;2022-09-14T11:34:59;5.20;;;4.60;;
691;SDS011;328;50.086;8.576;2022-09-14T11:37:31;5.50;;;5.00;;
691;SDS011;328;50.086;8.576;2022-09-14T11:40:04;5.57;;;4.60;;
691;SDS011;328;50.086;8.576;2022-09-14T11:42:36;5.80;;;5.30;;
691;SDS011;328;50.086;8.576;2022-09-14T11:45:12;5.00;;;4.60;;
691;SDS011;328;50.086;8.576;2022-09-14T11:47:45;5.37;;;4.87;;
691;SDS011;328;50.086;8.576;2022-09-14T11:50:18;5.93;;;5.33;;
691;SDS011;328;50.086;8.576;2022-09-14T11:52:51;5.70;;;4.67;;
691;SDS011;328;50.086;8.576;2022-09-14T11:55:22;7.80;;;5.90;;
691;SDS011;328;50.086;8.576;2022-09-14T11:57:49;4.63;;;4.17;;
691;SDS011;328;50.086;8.576;2022-09-14T12:03:15;7.60;;;4.50;;
691;SDS011;328;50.086;8.576;2022-09-14T12:05:44;4.40;;;4.00;;
691;SDS011;328;50.086;8.576;2022-09-14T12:08:35;4.70;;;3.50;;
691;SDS011;328;50.086;8.576;2022-09-14T12:11:22;5.03;;;4.03;;
691;SDS011;328;50.086;8.576;2022-09-14T12:17:05;4.07;;;3.30;;
691;SDS011;328;50.086;8.576;2022-09-14T12:23:11;5.80;;;4.93;;
691;SDS011;328;50.086;8.576;2022-09-14T12:25:51;6.03;;;5.17;;
691;SDS011;328;50.086;8.576;2022-09-14T12:28:28;5.83;;;5.03;;
691;SDS011;328;50.086;8.576;2022-09-14T12:31:05;8.63;;;6.27;;
691;SDS011;328;50.086;8.576;2022-09-14T12:46:31;5.90;;;5.33;;
691;SDS011;328;50.086;8.576;2022-09-14T12:49:27;5.43;;;4.87;;
691;SDS011;328;50.086;8.576;2022-09-14T12:51:58;6.20;;;5.50;;
691;SDS011;328;50.086;8.576;2022-09-14T12:54:32;9.83;;;5.53;;
691;SDS011;328;50.086;8.576;2022-09-14T12:57:13;6.90;;;6.20;;
691;SDS011;328;50.086;8.576;2022-09-14T12:59:46;8.80;;;6.20;;
691;SDS011;328;50.086;8.576;2022-09-14T13:02:34;6.20;;;5.30;;
691;SDS011;328;50.086;8.576;2022-09-14T13:05:15;7.77;;;6.30;;
691;SDS011;328;50.086;8.576;2022-09-14T13:07:45;8.73;;;5.90;;
691;SDS011;328;50.086;8.576;2022-09-14T13:10:17;8.90;;;6.70;;
691;SDS011;328;50.086;8.576;2022-09-14T13:12:46;6.70;;;5.40;;
691;SDS011;328;50.086;8.576;2022-09-14T13:15:16;6.50;;;5.57;;
691;SDS011;328;50.086;8.576;2022-09-14T13:17:54;6.00;;;5.40;;
691;SDS011;328;50.086;8.576;2022-09-14T13:20:22;9.33;;;6.30;;
691;SDS011;328;50.086;8.576;2022-09-14T13:22:50;6.73;;;5.73;;
691;SDS011;328;50.086;8.576;2022-09-14T13:25:25;6.83;;;6.10;;
691;SDS011;328;50.086;8.576;2022-09-14T13:27:57;6.93;;;5.93;;
691;SDS011;328;50.086;8.576;2022-09-14T13:30:26;7.20;;;5.80;;
691;SDS011;328;50.086;8.576;2022-09-14T13:32:54;9.77;;;6.77;;
691;SDS011;328;50.086;8.576;2022-09-14T13:35:26;6.80;;;6.17;;
691;SDS011;328;50.086;8.576;2022-09-14T13:37:55;7.03;;;5.60;;
691;SDS011;328;50.086;8.576;2022-09-14T13:40:26;7.10;;;6.40;;
691;SDS011;328;50.086;8.576;2022-09-14T13:42:55;5.70;;;5.10;;
691;SDS011;328;50.086;8.576;2022-09-14T13:45:24;5.87;;;5.37;;
691;SDS011;328;50.086;8.576;2022-09-14T13:47:53;6.13;;;5.53;;
691;SDS011;328;50.086;8.576;2022-09-14T13:50:21;8.07;;;5.80;;
691;SDS011;328;50.086;8.576;2022-09-14T13:52:50;5.80;;;5.20;;
691;SDS011;328;50.086;8.576;2022-09-14T13:55:41;6.17;;;5.50;;
691;SDS011;328;50.086;8.576;2022-09-14T13:58:14;5.50;;;4.47;;
691;SDS011;328;50.086;8.576;2022-09-14T14:00:47;7.40;;;6.37;;
691;SDS011;328;50.086;8.576;2022-09-14T14:03:23;7.73;;;5.40;;
691;SDS011;328;50.086;8.576;2022-09-14T14:05:53;7.47;;;5.90;;
691;SDS011;328;50.086;8.576;2022-09-14T14:08:24;6.40;;;5.20;;
691;SDS011;328;50.086;8.576;2022-09-14T14:10:55;9.03;;;6.00;;
691;SDS011;328;50.086;8.576;2022-09-14T14:13:24;8.40;;;6.33;;
691;SDS011;328;50.086;8.576;2022-09-14T14:15:52;6.47;;;5.63;;
691;SDS011;328;50.086;8.576;2022-09-14T14:21:22;7.20;;;6.50;;
691;SDS011;328;50.086;8.576;2022-09-14T14:23:53;8.23;;;7.40;;
691;SDS011;328;50.086;8.576;2022-09-14T14:26:47;7.90;;;6.60;;
691;SDS011;328;50.086;8.576;2022-09-14T14:29:15;8.73;;;7.23;;
691;SDS011;328;50.086;8.576;2022-09-14T14:31:43;10.37;;;7.23;;
691;SDS011;328;50.086;8.576;2022-09-14T14:34:16;7.90;;;7.03;;
691;SDS011;328;50.086;8.576;2022-09-14T14:36:45;7.50;;;6.80;;
691;SDS011;328;50.086;8.576;2022-09-14T14:39:16;10.03;;;8.63;;
691;SDS011;328;50.086;8.576;2022-09-14T14:41:44;12.70;;;7.87;;
691;SDS011;328;50.086;8.576;2022-09-14T14:44:15;10.77;;;8.20;;
691;SDS011;328;50.086;8.576;2022-09-14T14:46:45;11.77;;;7.40;;
691;SDS011;328;50.086;8.576;2022-09-14T14:49:13;10.47;;;8.70;;
691;SDS011;328;50.086;8.576;2022-09-14T14:51:42;11.70;;;8.70;;
691;SDS011;328;50.086;8.576;2022-09-14T14:54:09;10.40;;;6.73;;
691;SDS011;328;50.086;8.576;2022-09-14T14:56:37;10.67;;;8.13;;
691;SDS011;328;50.086;8.576;2022-09-14T14:59:14;9.50;;;8.40;;
691;SDS011;328;50.086;8.576;2022-09-14T15:01:48;18.50;;;9.07;;
691;SDS011;328;50.086;8.576;2022-09-14T15:04:17;10.40;;;7.97;;
691;SDS011;328;50.086;8.576;2022-09-14T15:06:44;12.70;;;9.40;;
691;SDS011;328;50.086;8.576;2022-09-14T15:09:13;11.30;;;9.23;;
691;SDS011;328;50.086;8.576;2022-09-14T15:11:42;13.00;;;9.63;;
691;SDS011;328;50.086;8.576;2022-09-14T15:14:10;11.43;;;9.27;;
691;SDS011;328;50.086;8.576;2022-09-14T15:16:39;8.87;;;8.00;;
691;SDS011;328;50.086;8.576;2022-09-14T15:19:07;12.73;;;9.27;;
691;SDS011;328;50.086;8.576;2022-09-14T15:21:35;10.30;;;8.30;;
691;SDS011;328;50.086;8.576;2022-09-14T15:24:03;12.93;;;7.97;;
691;SDS011;328;50.086;8.576;2022-09-14T15:26:30;10.53;;;8.63;;
691;SDS011;328;50.086;8.576;2022-09-14T15:28:59;11.07;;;8.47;;
691;SDS011;328;50.086;8.576;2022-09-14T15:31:27;9.93;;;8.63;;
691;SDS011;328;50.086;8.576;2022-09-14T15:33:56;10.17;;;9.00;;
691;SDS011;328;50.086;8.576;2022-09-14T15:36:34;12.67;;;9.70;;
691;SDS011;328;50.086;8.576;2022-09-14T15:39:06;11.00;;;8.33;;
691;SDS011;328;50.086;8.576;2022-09-14T15:41:35;11.00;;;8.10;;
691;SDS011;328;50.086;8.576;2022-09-14T15:44:02;15.30;;;9.93;;
691;SDS011;328;50.086;8.576;2022-09-14T15:46:32;13.43;;;9.37;;
691;SDS011;328;50.086;8.576;2022-09-14T15:49:04;11.50;;;8.77;;
691;SDS011;328;50.086;8.576;2022-09-14T15:51:34;10.33;;;9.23;;
691;SDS011;328;50.086;8.576;2022-09-14T15:54:02;9.37;;;8.47;;
691;SDS011;328;50.086;8.576;2022-09-14T15:56:30;16.10;;;10.33;;
691;SDS011;328;50.086;8.576;2022-09-14T15:58:59;10.43;;;8.83;;
691;SDS011;328;50.086;8.576;2022-09-14T16:01:27;13.67;;;10.23;;
691;SDS011;328;50.086;8.576;2022-09-14T16:03:56;11.93;;;10.17;;
691;SDS011;328;50.086;8.576;2022-09-14T16:06:26;11.00;;;9.03;;
691;SDS011;328;50.086;8.576;2022-09-14T16:08:55;13.37;;;10.37;;
691;SDS011;328;50.086;8.576;2022-09-14T16:11:23;12.20;;;10.30;;
691;SDS011;328;50.086;8.576;2022-09-14T16:13:50;16.10;;;11.13;;
691;SDS011;328;50.086;8.576;2022-09-14T16:16:19;13.70;;;10.10;;
691;SDS011;328;50.086;8.576;2022-09-14T16:18:47;12.00;;;9.60;;
691;SDS011;328;50.086;8.576;2022-09-14T16:21:16;11.47;;;10.00;;
691;SDS011;328;50.086;8.576;2022-09-14T16:23:50;12.67;;;10.00;;
691;SDS011;328;50.086;8.576;2022-09-14T16:26:19;9.63;;;7.27;;
691;SDS011;328;50.086;8.576;2022-09-14T16:28:49;12.00;;;9.80;;